Flight Track Log - Related Links

Times and Time Zones

All times are in EDT time to prevent confusion due to time zone crossing. See the SKW4664 flight status page for this flight to view local times or setup timezone preferences in your user account.

Time Position Orientation Groundspeed Altitude Reporting Facility
EDT Latitude Longitude Course Direction KTS MPH feet Rate Location/Type
Sun 10:36:18 AM 44.8500 -93.2333 235° Southwest 139 160 1,900  Level Minneapolis TRACON
Sun 10:36:58 AM 44.8314 -93.2394 193° South 154 177 3,100 2,020 Climbing Minneapolis Center
Sun 10:37:59 AM 44.7856 -93.2908 219° Southwest 219 252 5,300 2,293 Climbing Minneapolis Center
Sun 10:39:00 AM 44.6240 -93.7522 235° Southwest  Level FlightAware Approximate
Sun 10:39:01 AM 44.7522 -93.3789 242° Southwest 263 303 7,800  Level Minneapolis Center
Sun 10:40:00 AM 44.5494 -93.8788 230° Southwest  Level FlightAware Approximate
Sun 10:40:03 AM 44.7108 -93.4942 243° Southwest 276 318 11,300  Level Minneapolis Center
Sun 10:41:00 AM 44.4782 -94.0104 235° Southwest  Level FlightAware Approximate
Sun 10:41:04 AM 44.6719 -93.5975 242° Southwest 307 353 13,500  Level Minneapolis Center
Sun 10:42:06 AM 44.6314 -93.7119 244° Southwest 332 382 14,900 1,597 Climbing Minneapolis Center
Sun 10:43:08 AM 44.5858 -93.8322 242° Southwest 350 403 16,800 1,854 Climbing Minneapolis Center
Sun 10:44:09 AM 44.5297 -93.9469 236° Southwest 360 414 18,700 1,561 Climbing Minneapolis Center
Sun 10:45:11 AM 44.4683 -94.0639 234° Southwest 370 426 20,000 1,258 Climbing Minneapolis Center
Sun 10:46:13 AM 44.4058 -94.1839 234° Southwest 382 440 21,300 1,415 Climbing Minneapolis Center
Sun 10:47:14 AM 44.3561 -94.3467 247° West 381 438 22,900 1,317 Climbing Minneapolis Center
Sun 10:48:16 AM 44.3131 -94.4842 246° West 385 443 24,000 1,065 Climbing Minneapolis Center
Sun 10:49:18 AM 44.2667 -94.6369 247° West 393 452 25,100 976 Climbing Minneapolis Center
Sun 10:50:19 AM 44.2217 -94.7797 246° West 400 460 26,000 400 Climbing Minneapolis Center
Sun 10:51:33 AM 44.1753 -94.9253 246° West 408 470 26,000  Level Minneapolis Center
Sun 10:52:35 AM 44.1178 -95.1083 246° West 426 490 26,000  Level Minneapolis Center
Sun 10:53:36 AM 44.0697 -95.2597 246° West 428 493 26,000 -390 Level Minneapolis Center
Sun 10:54:38 AM 44.0306 -95.3800 246° West 426 490 25,200 -2,195 Descending Minneapolis Center
Sun 10:55:39 AM 43.9747 -95.5533 246° West 411 473 21,500 -3,268 Descending Minneapolis Center
Sun 10:56:41 AM 43.9317 -95.6867 246° West 384 442 18,500 -3,242 Descending Minneapolis Center
Sun 10:57:43 AM 43.8817 -95.8389 246° West 363 418 14,800 -2,634 Descending Minneapolis Center
Sun 10:58:44 AM 43.8422 -95.9597 246° West 346 398 13,100 -1,512 Descending Minneapolis Center
Sun 10:59:46 AM 43.8078 -96.0647 246° West 306 352 11,700 -1,463 Descending Minneapolis Center
Sun 11:00:47 AM 43.7756 -96.1636 246° West 288 331 10,100 -1,512 Descending Minneapolis Center
Sun 11:01:49 AM 43.7439 -96.2597 246° West 280 322 8,600 -1,463 Descending Minneapolis Center
Sun 11:02:50 AM 43.7131 -96.3528 245° Southwest 274 315 7,100 -1,366 Descending Minneapolis Center
Sun 11:03:52 AM 43.6842 -96.4389 245° Southwest 263 303 5,800 -1,122 Descending Minneapolis Center
Sun 11:04:53 AM 43.6750 -96.5208 261° West 239 275 4,800 -976 Descending Minneapolis Center
Sun 11:05:55 AM 43.6669 -96.5975 262° West 215 247 3,800 -968 Descending Minneapolis Center

Login

Don't have an account? Register now (free) for customized features, flight alerts, and more!